Time;durP1;ratioP1;P1;durP2;ratioP2;P2;SDS_P1;SDS_P2;PMS_P1;PMS_P2;Temp;Humidity;BMP_temperature;BMP_pressure;BME280_temperature;BME280_humidity;BME280_pressure;Samples;Min_cycle;Max_cycle;Signal;HPM_P1;HPM_P2
2022/01/15 14:32:20;;;;;;;5.93;3.71;;;;;;;20.22;42.58;101486.77;;;;-52
2022/01/15 14:35:20;;;;;;;5.24;3.69;;;;;;;20.24;42.69;101482.00;;;;-55
2022/01/15 14:38:20;;;;;;;4.08;3.68;;;;;;;20.22;42.86;101479.69;;;;-54
2022/01/15 14:41:20;;;;;;;4.35;3.75;;;;;;;20.21;42.93;101484.69;;;;-59
2022/01/15 14:44:20;;;;;;;4.67;3.41;;;;;;;20.22;42.98;101476.34;;;;-65
2022/01/15 14:47:20;;;;;;;5.91;3.51;;;;;;;20.22;42.93;101476.67;;;;-58
2022/01/15 14:50:20;;;;;;;4.17;3.58;;;;;;;20.22;42.96;101472.92;;;;-60
2022/01/15 14:53:20;;;;;;;4.39;3.68;;;;;;;20.19;42.99;101474.52;;;;-61
2022/01/15 14:56:20;;;;;;;4.40;3.57;;;;;;;20.17;43.11;101469.50;;;;-62
2022/01/15 14:59:20;;;;;;;4.77;3.65;;;;;;;20.18;42.97;101464.37;;;;-55
2022/01/15 15:02:20;;;;;;;6.31;3.42;;;;;;;20.20;43.26;101462.88;;;;-53
2022/01/15 15:05:20;;;;;;;4.40;3.55;;;;;;;20.20;43.39;101456.93;;;;-49
2022/01/15 15:08:20;;;;;;;4.29;3.76;;;;;;;20.25;43.63;101452.08;;;;-46
2022/01/15 15:11:20;;;;;;;5.41;3.75;;;;;;;20.27;43.86;101452.98;;;;-53
2022/01/15 15:14:20;;;;;;;4.20;3.54;;;;;;;20.29;43.69;101456.39;;;;-56
2022/01/15 15:17:22;;;;;;;9.19;6.42;;;;;;;20.22;42.33;101463.08;;;;-61
2022/01/15 15:20:20;;;;;;;7.40;5.25;;;;;;;20.24;42.93;101464.01;;;;-59
2022/01/15 15:23:22;;;;;;;7.53;4.61;;;;;;;20.22;43.20;101464.05;;;;-60
2022/01/15 15:26:20;;;;;;;6.05;4.02;;;;;;;20.22;43.16;101461.94;;;;-59
2022/01/15 15:29:20;;;;;;;6.05;4.23;;;;;;;20.24;43.22;101470.03;;;;-57
2022/01/15 15:32:20;;;;;;;5.18;4.02;;;;;;;20.23;43.20;101471.05;;;;-57
2022/01/15 15:35:20;;;;;;;7.16;4.38;;;;;;;20.22;43.10;101470.97;;;;-54
2022/01/15 15:38:20;;;;;;;5.52;4.13;;;;;;;20.19;43.03;101468.95;;;;-54
2022/01/15 15:41:20;;;;;;;5.43;4.17;;;;;;;20.17;43.04;101469.42;;;;-55
2022/01/15 15:44:20;;;;;;;5.15;4.06;;;;;;;20.18;43.23;101460.06;;;;-52
2022/01/15 15:47:20;;;;;;;8.61;4.23;;;;;;;20.19;43.08;101451.48;;;;-53
2022/01/15 15:50:20;;;;;;;7.98;4.02;;;;;;;20.22;43.15;101455.02;;;;-52
2022/01/15 15:53:20;;;;;;;5.03;3.59;;;;;;;20.23;43.26;101454.53;;;;-59
2022/01/15 15:56:20;;;;;;;5.13;3.93;;;;;;;20.24;43.36;101452.20;;;;-62
2022/01/15 15:59:20;;;;;;;4.88;3.96;;;;;;;20.22;43.39;101450.37;;;;-53
2022/01/15 16:02:20;;;;;;;7.19;4.14;;;;;;;20.23;43.25;101451.55;;;;-52
2022/01/15 16:05:20;;;;;;;5.75;3.73;;;;;;;20.23;43.39;101442.77;;;;-64
2022/01/15 16:08:20;;;;;;;5.23;3.58;;;;;;;20.23;43.42;101440.29;;;;-63
2022/01/15 16:11:20;;;;;;;6.29;3.86;;;;;;;20.25;43.46;101443.98;;;;-62
2022/01/15 16:14:20;;;;;;;4.12;3.65;;;;;;;20.24;43.45;101439.84;;;;-62
2022/01/15 16:17:20;;;;;;;5.14;3.48;;;;;;;20.28;43.47;101438.20;;;;-59
2022/01/15 16:20:20;;;;;;;4.15;3.64;;;;;;;20.27;43.49;101437.52;;;;-66
2022/01/15 16:23:20;;;;;;;5.45;3.62;;;;;;;20.31;43.63;101440.20;;;;-66
2022/01/15 16:26:20;;;;;;;4.23;3.63;;;;;;;20.34;43.53;101442.55;;;;-62
2022/01/15 16:29:20;;;;;;;4.46;3.65;;;;;;;20.38;43.51;101439.91;;;;-66
2022/01/15 16:32:20;;;;;;;4.45;3.29;;;;;;;20.40;43.52;101443.16;;;;-53
2022/01/15 16:35:20;;;;;;;3.74;3.33;;;;;;;20.42;43.47;101445.62;;;;-64
2022/01/15 16:38:21;;;;;;;7.03;3.75;;;;;;;20.45;43.30;101436.80;;;;-62
2022/01/15 16:41:20;;;;;;;12.38;4.14;;;;;;;20.46;43.44;101433.63;;;;-60
2022/01/15 16:44:20;;;;;;;8.54;3.58;;;;;;;20.47;43.53;101435.94;;;;-68
2022/01/15 16:47:20;;;;;;;12.11;3.75;;;;;;;20.51;43.70;101433.56;;;;-54
2022/01/15 16:50:20;;;;;;;7.59;3.45;;;;;;;20.53;43.68;101430.19;;;;-61
2022/01/15 16:53:20;;;;;;;13.24;3.73;;;;;;;20.58;43.98;101434.12;;;;-58
2022/01/15 16:56:20;;;;;;;8.09;4.01;;;;;;;20.59;43.83;101442.13;;;;-56
2022/01/15 16:59:21;;;;;;;5.59;3.68;;;;;;;20.59;43.76;101449.55;;;;-58
2022/01/15 17:02:20;;;;;;;7.04;3.33;;;;;;;20.58;43.85;101447.64;;;;-52
2022/01/15 17:05:20;;;;;;;4.81;3.48;;;;;;;20.59;43.65;101441.23;;;;-59
2022/01/15 17:08:20;;;;;;;9.37;3.79;;;;;;;20.61;43.61;101440.05;;;;-54
2022/01/15 17:11:20;;;;;;;6.89;3.45;;;;;;;20.56;43.40;101440.56;;;;-53
2022/01/15 17:14:20;;;;;;;8.61;3.43;;;;;;;20.52;43.46;101442.45;;;;-53
2022/01/15 17:17:20;;;;;;;4.45;3.17;;;;;;;20.47;43.46;101437.97;;;;-55
2022/01/15 17:20:21;;;;;;;4.58;3.33;;;;;;;20.44;43.50;101434.76;;;;-54
2022/01/15 17:23:20;;;;;;;5.35;3.31;;;;;;;20.42;43.49;101428.09;;;;-54
2022/01/15 17:26:22;;;;;;;5.78;3.18;;;;;;;20.40;43.50;101427.24;;;;-51
2022/01/15 17:29:20;;;;;;;5.37;3.18;;;;;;;20.37;43.38;101428.59;;;;-51
2022/01/15 17:32:20;;;;;;;5.36;3.20;;;;;;;20.36;43.59;101423.37;;;;-50
2022/01/15 17:35:20;;;;;;;4.47;3.20;;;;;;;20.34;43.56;101423.66;;;;-55
2022/01/15 17:38:20;;;;;;;5.14;3.07;;;;;;;20.32;43.54;101423.46;;;;-53
2022/01/15 17:41:21;;;;;;;4.29;3.01;;;;;;;20.30;43.48;101424.23;;;;-50
2022/01/15 17:44:20;;;;;;;4.10;3.26;;;;;;;20.29;43.43;101423.06;;;;-50
2022/01/15 17:47:20;;;;;;;4.13;3.09;;;;;;;20.27;43.52;101426.85;;;;-51
2022/01/15 17:50:20;;;;;;;4.20;3.23;;;;;;;20.25;43.57;101423.27;;;;-54
2022/01/15 17:53:20;;;;;;;4.31;3.05;;;;;;;20.25;43.51;101416.31;;;;-53
2022/01/15 17:56:20;;;;;;;4.15;3.12;;;;;;;20.24;43.58;101413.55;;;;-52
2022/01/15 17:59:20;;;;;;;4.53;2.93;;;;;;;20.23;43.59;101408.30;;;;-54
2022/01/15 18:02:21;;;;;;;3.51;2.97;;;;;;;20.22;43.50;101409.03;;;;-60
2022/01/15 18:05:20;;;;;;;5.11;3.12;;;;;;;20.23;43.31;101405.20;;;;-58
2022/01/15 18:08:20;;;;;;;4.17;3.17;;;;;;;20.22;42.99;101409.27;;;;-59
2022/01/15 18:11:22;;;;;;;3.87;3.01;;;;;;;20.21;43.23;101407.23;;;;-58
2022/01/15 18:14:22;;;;;;;3.19;2.81;;;;;;;20.21;43.31;101410.00;;;;-59
2022/01/15 18:17:20;;;;;;;3.47;2.79;;;;;;;20.21;43.33;101402.48;;;;-59
2022/01/15 18:20:20;;;;;;;3.44;2.97;;;;;;;20.21;43.38;101401.75;;;;-52
2022/01/15 18:23:22;;;;;;;4.76;3.22;;;;;;;20.24;43.55;101399.37;;;;-51
2022/01/15 18:26:20;;;;;;;4.57;3.00;;;;;;;20.25;43.44;101402.75;;;;-53
2022/01/15 18:29:20;;;;;;;4.62;3.13;;;;;;;20.26;43.52;101399.17;;;;-60
2022/01/15 18:32:20;;;;;;;3.33;2.79;;;;;;;20.24;43.39;101399.95;;;;-59
2022/01/15 18:35:20;;;;;;;6.09;2.81;;;;;;;20.24;43.40;101398.08;;;;-59
2022/01/15 18:38:20;;;;;;;3.83;2.58;;;;;;;20.23;43.54;101400.48;;;;-59
2022/01/15 18:41:21;;;;;;;3.41;2.73;;;;;;;20.23;43.51;101399.83;;;;-60
2022/01/15 18:44:20;;;;;;;4.07;2.95;;;;;;;20.21;43.39;101402.19;;;;-59
2022/01/15 18:47:20;;;;;;;3.46;2.47;;;;;;;20.21;43.60;101404.77;;;;-58
2022/01/15 18:50:22;;;;;;;3.02;2.60;;;;;;;20.20;43.61;101408.59;;;;-58
2022/01/15 18:53:20;;;;;;;4.71;2.69;;;;;;;20.19;43.52;101402.80;;;;-59
2022/01/15 18:56:21;;;;;;;3.43;2.91;;;;;;;20.19;43.70;101402.56;;;;-58
2022/01/15 18:59:20;;;;;;;3.11;2.75;;;;;;;20.19;43.56;101395.08;;;;-58
2022/01/15 19:02:20;;;;;;;3.07;2.78;;;;;;;20.20;43.62;101398.58;;;;-58
2022/01/15 19:05:20;;;;;;;4.24;2.83;;;;;;;20.20;43.58;101394.83;;;;-58
2022/01/15 19:08:20;;;;;;;3.05;2.75;;;;;;;20.21;43.55;101397.36;;;;-58
2022/01/15 19:11:20;;;;;;;3.01;2.67;;;;;;;20.20;43.60;101393.28;;;;-58
2022/01/15 19:14:21;;;;;;;2.92;2.61;;;;;;;20.19;43.58;101399.95;;;;-59
2022/01/15 19:17:20;;;;;;;2.95;2.65;;;;;;;20.19;43.55;101406.30;;;;-58
2022/01/15 19:20:20;;;;;;;3.05;2.77;;;;;;;20.20;43.68;101412.41;;;;-58
2022/01/15 19:23:20;;;;;;;2.79;2.59;;;;;;;20.20;43.58;101440.16;;;;-58
2022/01/15 19:26:20;;;;;;;4.23;2.74;;;;;;;20.20;43.64;101453.59;;;;-58
2022/01/15 19:29:20;;;;;;;2.77;2.55;;;;;;;20.19;43.67;101511.79;;;;-58
2022/01/15 19:32:20;;;;;;;3.90;2.69;;;;;;;20.20;43.69;101528.80;;;;-59
2022/01/15 19:35:20;;;;;;;2.91;2.51;;;;;;;20.20;43.68;101476.80;;;;-59
2022/01/15 19:38:20;;;;;;;2.91;2.61;;;;;;;20.20;43.63;101486.39;;;;-59
2022/01/15 19:41:20;;;;;;;2.87;2.63;;;;;;;20.19;43.77;101401.63;;;;-58
2022/01/15 19:44:20;;;;;;;2.62;2.40;;;;;;;20.18;43.59;101375.09;;;;-59
2022/01/15 19:47:20;;;;;;;3.65;2.75;;;;;;;20.17;43.57;101333.80;;;;-58
2022/01/15 19:50:20;;;;;;;2.91;2.61;;;;;;;20.15;43.65;101249.56;;;;-59
2022/01/15 19:53:22;;;;;;;2.57;2.37;;;;;;;20.14;43.71;101261.66;;;;-59
2022/01/15 19:56:22;;;;;;;2.87;2.57;;;;;;;20.13;43.65;101250.34;;;;-58
2022/01/15 19:59:20;;;;;;;2.60;2.40;;;;;;;20.11;43.63;101313.13;;;;-58
2022/01/15 20:02:20;;;;;;;2.69;2.49;;;;;;;20.09;43.54;101299.75;;;;-58
2022/01/15 20:05:20;;;;;;;3.74;2.78;;;;;;;20.08;43.50;101340.56;;;;-58
2022/01/15 20:08:20;;;;;;;4.00;2.68;;;;;;;20.06;43.63;101331.74;;;;-58
2022/01/15 20:11:20;;;;;;;4.10;2.57;;;;;;;20.06;43.56;101331.25;;;;-57
2022/01/15 20:14:20;;;;;;;3.00;2.69;;;;;;;20.08;43.80;101312.73;;;;-56
2022/01/15 20:17:20;;;;;;;2.96;2.66;;;;;;;20.07;43.76;101315.26;;;;-58
2022/01/15 20:20:20;;;;;;;3.03;2.73;;;;;;;20.06;43.84;101284.87;;;;-57
2022/01/15 20:23:20;;;;;;;3.91;2.75;;;;;;;20.05;43.84;101277.22;;;;-54
2022/01/15 20:26:20;;;;;;;3.08;2.80;;;;;;;20.03;43.87;101240.09;;;;-55
2022/01/15 20:29:21;;;;;;;3.11;2.81;;;;;;;20.02;43.94;101282.69;;;;-55
2022/01/15 20:32:20;;;;;;;3.01;2.69;;;;;;;20.00;43.85;101297.63;;;;-55
2022/01/15 20:35:20;;;;;;;3.16;2.85;;;;;;;19.99;43.96;101310.07;;;;-55
2022/01/15 20:38:20;;;;;;;2.83;2.63;;;;;;;19.98;44.01;101328.98;;;;-56
2022/01/15 20:41:20;;;;;;;2.98;2.67;;;;;;;19.94;43.93;101309.06;;;;-54
2022/01/15 20:44:20;;;;;;;4.04;2.85;;;;;;;19.94;44.08;101312.48;;;;-57
2022/01/15 20:47:20;;;;;;;2.82;2.62;;;;;;;19.92;44.06;101316.27;;;;-60
2022/01/15 20:50:21;;;;;;;2.68;2.46;;;;;;;19.89;43.99;101327.12;;;;-58
2022/01/15 20:53:20;;;;;;;3.29;2.80;;;;;;;19.87;44.20;101341.98;;;;-60
2022/01/15 20:56:20;;;;;;;3.16;2.81;;;;;;;19.85;44.18;101334.78;;;;-62
2022/01/15 20:59:20;;;;;;;3.10;2.77;;;;;;;19.83;44.25;101326.13;;;;-59
2022/01/15 21:02:20;;;;;;;3.32;2.83;;;;;;;19.82;44.13;101308.27;;;;-59
2022/01/15 21:05:20;;;;;;;4.27;2.59;;;;;;;19.78;44.30;101329.86;;;;-53
2022/01/15 21:08:20;;;;;;;2.93;2.70;;;;;;;19.76;44.26;101290.21;;;;-59
2022/01/15 21:11:20;;;;;;;3.55;3.01;;;;;;;19.75;44.23;101275.95;;;;-58
2022/01/15 21:14:20;;;;;;;3.94;2.72;;;;;;;19.72;44.19;101284.77;;;;-60
2022/01/15 21:17:20;;;;;;;6.70;3.11;;;;;;;19.70;44.31;101281.04;;;;-61
2022/01/15 21:20:20;;;;;;;3.57;2.72;;;;;;;19.67;44.21;101279.34;;;;-59
2022/01/15 21:23:21;;;;;;;2.86;2.61;;;;;;;19.64;44.32;101287.11;;;;-51
2022/01/15 21:26:20;;;;;;;4.06;2.75;;;;;;;19.62;44.35;101281.63;;;;-54
2022/01/15 21:29:20;;;;;;;2.82;2.61;;;;;;;19.61;44.37;101328.74;;;;-53
2022/01/15 21:32:20;;;;;;;3.07;2.46;;;;;;;19.59;44.35;101308.21;;;;-59
2022/01/15 21:35:20;;;;;;;3.76;2.69;;;;;;;19.57;44.47;101322.59;;;;-60
2022/01/15 21:38:20;;;;;;;4.64;2.74;;;;;;;19.53;44.59;101309.34;;;;-52
2022/01/15 21:41:23;;;;;;;5.13;2.83;;;;;;;19.51;44.59;101321.58;;;;-55
2022/01/15 21:44:20;;;;;;;5.87;2.93;;;;;;;19.48;44.46;101323.53;;;;-49
2022/01/15 21:47:20;;;;;;;3.61;2.67;;;;;;;19.46;44.58;101321.87;;;;-49
2022/01/15 21:50:20;;;;;;;4.63;2.74;;;;;;;19.44;44.63;101320.44;;;;-57
2022/01/15 21:53:20;;;;;;;3.03;2.73;;;;;;;19.41;44.62;101320.80;;;;-60
2022/01/15 21:56:20;;;;;;;4.31;3.05;;;;;;;19.39;44.56;101310.60;;;;-63
2022/01/15 21:59:20;;;;;;;3.01;2.70;;;;;;;19.35;44.57;101320.36;;;;-59
2022/01/15 22:02:20;;;;;;;2.59;2.39;;;;;;;19.35;44.57;101331.48;;;;-62
2022/01/15 22:05:20;;;;;;;4.72;2.81;;;;;;;19.32;44.80;101339.48;;;;-61
2022/01/15 22:08:20;;;;;;;3.47;2.49;;;;;;;19.30;44.78;101323.80;;;;-56
2022/01/15 22:11:21;;;;;;;3.55;2.26;;;;;;;19.28;44.68;101327.12;;;;-59
2022/01/15 22:14:20;;;;;;;5.01;2.54;;;;;;;19.27;44.72;101336.28;;;;-56
2022/01/15 22:17:20;;;;;;;3.90;2.71;;;;;;;19.24;44.70;101325.75;;;;-54
2022/01/15 22:20:20;;;;;;;2.84;2.56;;;;;;;19.23;44.74;101330.50;;;;-53
2022/01/15 22:23:20;;;;;;;4.29;2.60;;;;;;;19.22;44.71;101329.92;;;;-51
2022/01/15 22:26:20;;;;;;;3.77;2.60;;;;;;;19.23;44.87;101326.11;;;;-51
2022/01/15 22:29:24;;;;;;;3.27;2.69;;;;;;;19.20;44.68;101342.80;;;;-49
2022/01/15 22:32:20;;;;;;;4.46;2.73;;;;;;;19.17;44.61;101332.03;;;;-48
2022/01/15 22:35:20;;;;;;;2.94;2.63;;;;;;;19.15;44.57;101331.30;;;;-53
2022/01/15 22:38:20;;;;;;;4.57;2.80;;;;;;;19.11;44.58;101331.73;;;;-53
2022/01/15 22:41:20;;;;;;;3.99;2.67;;;;;;;19.08;44.61;101333.44;;;;-53
2022/01/15 22:44:20;;;;;;;3.19;2.71;;;;;;;19.05;44.56;101334.41;;;;-54
2022/01/15 22:47:20;;;;;;;3.65;2.68;;;;;;;19.02;44.57;101325.02;;;;-52
2022/01/15 22:50:20;;;;;;;3.01;2.68;;;;;;;18.99;44.58;101318.05;;;;-48
2022/01/15 22:53:21;;;;;;;2.99;2.69;;;;;;;18.95;44.60;101324.22;;;;-51
2022/01/15 22:56:21;;;;;;;2.77;2.57;;;;;;;18.93;44.60;101325.88;;;;-48
2022/01/15 22:59:20;;;;;;;3.02;2.72;;;;;;;18.90;44.57;101325.88;;;;-53
2022/01/15 23:02:20;;;;;;;2.94;2.64;;;;;;;18.86;44.57;101321.67;;;;-51
2022/01/15 23:05:20;;;;;;;2.91;2.62;;;;;;;18.84;44.56;101319.23;;;;-51
2022/01/15 23:08:20;;;;;;;3.07;2.77;;;;;;;18.81;44.61;101313.17;;;;-51
2022/01/15 23:11:23;;;;;;;2.63;2.40;;;;;;;18.80;44.65;101310.21;;;;-51
2022/01/15 23:14:25;;;;;;;2.79;2.59;;;;;;;18.75;44.57;101307.41;;;;-51
2022/01/15 23:17:20;;;;;;;3.26;2.60;;;;;;;18.73;44.63;101307.67;;;;-52
2022/01/15 23:20:20;;;;;;;3.13;2.83;;;;;;;18.70;44.62;101306.66;;;;-51
2022/01/15 23:23:24;;;;;;;3.76;2.73;;;;;;;18.67;44.61;101309.73;;;;-51
2022/01/15 23:26:20;;;;;;;3.18;2.77;;;;;;;18.64;44.64;101297.09;;;;-52
2022/01/15 23:29:21;;;;;;;2.85;2.53;;;;;;;18.62;44.62;101291.77;;;;-52
2022/01/15 23:32:20;;;;;;;3.19;2.89;;;;;;;18.60;44.70;101278.73;;;;-52
2022/01/15 23:35:20;;;;;;;2.97;2.67;;;;;;;18.57;44.69;101279.89;;;;-52
2022/01/15 23:38:21;;;;;;;3.09;2.76;;;;;;;18.55;44.67;101288.38;;;;-48
2022/01/15 23:41:20;;;;;;;3.26;2.96;;;;;;;18.54;44.67;101294.25;;;;-48
2022/01/15 23:44:25;;;;;;;3.26;2.82;;;;;;;18.51;44.69;101288.77;;;;-48
2022/01/15 23:47:20;;;;;;;3.25;2.93;;;;;;;18.50;44.74;101283.28;;;;-50
2022/01/15 23:50:20;;;;;;;3.11;2.80;;;;;;;18.47;44.68;101289.44;;;;-52
2022/01/15 23:53:20;;;;;;;3.13;2.84;;;;;;;18.44;44.70;101288.50;;;;-51
2022/01/15 23:56:20;;;;;;;3.17;2.87;;;;;;;18.42;44.75;101290.64;;;;-51
2022/01/15 23:59:22;;;;;;;3.55;3.03;;;;;;;18.40;44.72;101295.05;;;;-51
